sensor_id;sensor_type;location;lat;lon;timestamp;P1;durP1;ratioP1;P2;durP2;ratioP2
2652;SDS011;1336;48.692;9.144;2022-10-16T05:00:19;3.23;;;2.30;;
2652;SDS011;1336;48.692;9.144;2022-10-16T05:01:12;3.20;;;2.55;;
2652;SDS011;1336;48.692;9.144;2022-10-16T05:02:03;5.40;;;2.30;;
2652;SDS011;1336;48.692;9.144;2022-10-16T05:02:55;4.22;;;2.55;;
2652;SDS011;1336;48.692;9.144;2022-10-16T05:03:45;3.10;;;2.57;;
2652;SDS011;1336;48.692;9.144;2022-10-16T05:04:37;11.88;;;3.15;;
2652;SDS011;1336;48.692;9.144;2022-10-16T05:05:28;7.30;;;3.07;;
2652;SDS011;1336;48.692;9.144;2022-10-16T05:06:19;6.88;;;2.50;;
2652;SDS011;1336;48.692;9.144;2022-10-16T05:07:10;4.10;;;2.33;;
2652;SDS011;1336;48.692;9.144;2022-10-16T05:08:02;8.02;;;2.50;;
2652;SDS011;1336;48.692;9.144;2022-10-16T05:08:54;6.47;;;2.30;;
2652;SDS011;1336;48.692;9.144;2022-10-16T05:09:45;5.25;;;2.28;;
2652;SDS011;1336;48.692;9.144;2022-10-16T05:10:36;3.40;;;2.10;;
2652;SDS011;1336;48.692;9.144;2022-10-16T05:11:28;4.07;;;1.90;;
2652;SDS011;1336;48.692;9.144;2022-10-16T05:12:18;2.77;;;1.90;;
2652;SDS011;1336;48.692;9.144;2022-10-16T05:13:10;3.05;;;2.33;;
2652;SDS011;1336;48.692;9.144;2022-10-16T05:14:02;2.80;;;2.50;;
2652;SDS011;1336;48.692;9.144;2022-10-16T05:14:53;4.30;;;3.00;;
2652;SDS011;1336;48.692;9.144;2022-10-16T05:15:49;6.53;;;3.05;;
2652;SDS011;1336;48.692;9.144;2022-10-16T05:16:41;6.10;;;3.47;;
2652;SDS011;1336;48.692;9.144;2022-10-16T05:17:32;6.90;;;3.73;;
2652;SDS011;1336;48.692;9.144;2022-10-16T05:18:23;4.57;;;3.50;;
2652;SDS011;1336;48.692;9.144;2022-10-16T05:19:14;9.90;;;3.57;;
2652;SDS011;1336;48.692;9.144;2022-10-16T05:20:06;6.65;;;3.28;;
2652;SDS011;1336;48.692;9.144;2022-10-16T05:20:57;6.20;;;3.03;;
2652;SDS011;1336;48.692;9.144;2022-10-16T05:21:49;4.07;;;2.75;;
2652;SDS011;1336;48.692;9.144;2022-10-16T05:22:39;4.63;;;3.27;;
2652;SDS011;1336;48.692;9.144;2022-10-16T05:23:31;3.83;;;3.08;;
2652;SDS011;1336;48.692;9.144;2022-10-16T05:24:22;13.73;;;3.80;;
2652;SDS011;1336;48.692;9.144;2022-10-16T05:25:14;5.68;;;3.30;;
2652;SDS011;1336;48.692;9.144;2022-10-16T05:26:05;3.80;;;3.50;;
2652;SDS011;1336;48.692;9.144;2022-10-16T05:26:57;4.85;;;3.33;;
2652;SDS011;1336;48.692;9.144;2022-10-16T05:27:48;9.70;;;3.97;;
2652;SDS011;1336;48.692;9.144;2022-10-16T05:28:40;3.78;;;3.47;;
2652;SDS011;1336;48.692;9.144;2022-10-16T05:29:31;6.23;;;3.57;;
2652;SDS011;1336;48.692;9.144;2022-10-16T05:30:22;3.65;;;2.75;;
2652;SDS011;1336;48.692;9.144;2022-10-16T05:31:14;6.17;;;3.43;;
2652;SDS011;1336;48.692;9.144;2022-10-16T05:32:06;4.13;;;3.00;;
2652;SDS011;1336;48.692;9.144;2022-10-16T05:32:58;4.93;;;2.90;;
2652;SDS011;1336;48.692;9.144;2022-10-16T05:33:50;12.63;;;3.38;;
2652;SDS011;1336;48.692;9.144;2022-10-16T05:34:41;5.07;;;2.50;;
2652;SDS011;1336;48.692;9.144;2022-10-16T05:35:32;8.32;;;2.58;;
2652;SDS011;1336;48.692;9.144;2022-10-16T05:36:24;3.83;;;2.60;;
2652;SDS011;1336;48.692;9.144;2022-10-16T05:37:15;3.83;;;2.30;;
2652;SDS011;1336;48.692;9.144;2022-10-16T05:38:06;7.55;;;2.15;;
2652;SDS011;1336;48.692;9.144;2022-10-16T05:38:57;6.17;;;2.20;;
2652;SDS011;1336;48.692;9.144;2022-10-16T05:39:49;4.25;;;2.30;;
2652;SDS011;1336;48.692;9.144;2022-10-16T05:40:39;2.60;;;2.03;;
2652;SDS011;1336;48.692;9.144;2022-10-16T05:41:31;3.45;;;2.20;;
2652;SDS011;1336;48.692;9.144;2022-10-16T05:42:22;5.07;;;2.30;;
2652;SDS011;1336;48.692;9.144;2022-10-16T05:43:14;3.67;;;2.05;;
2652;SDS011;1336;48.692;9.144;2022-10-16T05:44:04;6.47;;;2.10;;
2652;SDS011;1336;48.692;9.144;2022-10-16T05:44:57;5.75;;;2.05;;
2652;SDS011;1336;48.692;9.144;2022-10-16T05:45:53;3.33;;;2.13;;
2652;SDS011;1336;48.692;9.144;2022-10-16T05:46:47;6.18;;;2.50;;
2652;SDS011;1336;48.692;9.144;2022-10-16T05:47:39;7.35;;;2.20;;
2652;SDS011;1336;48.692;9.144;2022-10-16T05:48:30;5.75;;;2.60;;
2652;SDS011;1336;48.692;9.144;2022-10-16T05:49:22;7.32;;;2.97;;
2652;SDS011;1336;48.692;9.144;2022-10-16T05:50:13;7.40;;;2.13;;
2652;SDS011;1336;48.692;9.144;2022-10-16T05:51:05;5.28;;;2.63;;
2652;SDS011;1336;48.692;9.144;2022-10-16T05:51:57;11.82;;;3.05;;
2652;SDS011;1336;48.692;9.144;2022-10-16T05:52:49;2.95;;;2.10;;
2652;SDS011;1336;48.692;9.144;2022-10-16T05:53:39;6.93;;;2.63;;
2652;SDS011;1336;48.692;9.144;2022-10-16T05:54:32;4.35;;;2.60;;
2652;SDS011;1336;48.692;9.144;2022-10-16T05:55:22;5.73;;;2.20;;
2652;SDS011;1336;48.692;9.144;2022-10-16T05:56:14;3.78;;;2.20;;
2652;SDS011;1336;48.692;9.144;2022-10-16T05:57:05;6.80;;;2.35;;
2652;SDS011;1336;48.692;9.144;2022-10-16T05:57:57;5.78;;;2.30;;
2652;SDS011;1336;48.692;9.144;2022-10-16T05:58:48;5.57;;;2.47;;
2652;SDS011;1336;48.692;9.144;2022-10-16T05:59:39;3.80;;;2.85;;
2652;SDS011;1336;48.692;9.144;2022-10-16T06:00:30;2.57;;;2.03;;
2652;SDS011;1336;48.692;9.144;2022-10-16T06:01:22;4.60;;;1.90;;
2652;SDS011;1336;48.692;9.144;2022-10-16T06:02:15;7.07;;;2.40;;
2652;SDS011;1336;48.692;9.144;2022-10-16T06:03:07;3.33;;;2.10;;
2652;SDS011;1336;48.692;9.144;2022-10-16T06:03:58;5.93;;;2.33;;
2652;SDS011;1336;48.692;9.144;2022-10-16T06:04:51;2.92;;;1.70;;
2652;SDS011;1336;48.692;9.144;2022-10-16T06:05:43;3.65;;;1.95;;
2652;SDS011;1336;48.692;9.144;2022-10-16T06:06:35;4.13;;;1.90;;
2652;SDS011;1336;48.692;9.144;2022-10-16T06:07:26;2.97;;;2.00;;
2652;SDS011;1336;48.692;9.144;2022-10-16T06:08:18;4.95;;;2.17;;
2652;SDS011;1336;48.692;9.144;2022-10-16T06:09:10;3.63;;;1.80;;
2652;SDS011;1336;48.692;9.144;2022-10-16T06:10:02;3.35;;;2.00;;
2652;SDS011;1336;48.692;9.144;2022-10-16T06:11:00;4.57;;;2.05;;
2652;SDS011;1336;48.692;9.144;2022-10-16T06:11:52;2.60;;;2.35;;
2652;SDS011;1336;48.692;9.144;2022-10-16T06:12:43;4.17;;;3.30;;
2652;SDS011;1336;48.692;9.144;2022-10-16T06:13:35;7.82;;;2.30;;
2652;SDS011;1336;48.692;9.144;2022-10-16T06:14:26;6.00;;;2.30;;
2652;SDS011;1336;48.692;9.144;2022-10-16T06:15:18;4.00;;;2.70;;
2652;SDS011;1336;48.692;9.144;2022-10-16T06:16:09;10.57;;;3.83;;
2652;SDS011;1336;48.692;9.144;2022-10-16T06:17:01;5.88;;;3.75;;
2652;SDS011;1336;48.692;9.144;2022-10-16T06:17:53;5.90;;;3.80;;
2652;SDS011;1336;48.692;9.144;2022-10-16T06:18:45;5.28;;;3.80;;
2652;SDS011;1336;48.692;9.144;2022-10-16T06:19:36;9.43;;;4.90;;
2652;SDS011;1336;48.692;9.144;2022-10-16T06:20:28;7.90;;;4.45;;
2652;SDS011;1336;48.692;9.144;2022-10-16T06:21:20;8.20;;;5.00;;
2652;SDS011;1336;48.692;9.144;2022-10-16T06:22:14;9.18;;;4.93;;
2652;SDS011;1336;48.692;9.144;2022-10-16T06:23:06;5.63;;;4.75;;
2652;SDS011;1336;48.692;9.144;2022-10-16T06:23:57;7.53;;;4.53;;
2652;SDS011;1336;48.692;9.144;2022-10-16T06:24:48;6.05;;;5.07;;
2652;SDS011;1336;48.692;9.144;2022-10-16T06:25:40;4.85;;;4.35;;
2652;SDS011;1336;48.692;9.144;2022-10-16T06:26:31;4.40;;;4.00;;
2652;SDS011;1336;48.692;9.144;2022-10-16T06:27:23;8.13;;;4.53;;
2652;SDS011;1336;48.692;9.144;2022-10-16T06:28:14;7.97;;;3.72;;
2652;SDS011;1336;48.692;9.144;2022-10-16T06:29:06;6.65;;;4.20;;
2652;SDS011;1336;48.692;9.144;2022-10-16T06:29:58;5.47;;;3.95;;
2652;SDS011;1336;48.692;9.144;2022-10-16T06:30:58;5.78;;;3.83;;
2652;SDS011;1336;48.692;9.144;2022-10-16T06:31:49;4.53;;;3.50;;
2652;SDS011;1336;48.692;9.144;2022-10-16T06:32:40;7.28;;;3.35;;
2652;SDS011;1336;48.692;9.144;2022-10-16T06:33:32;4.40;;;3.50;;
2652;SDS011;1336;48.692;9.144;2022-10-16T06:34:24;8.80;;;2.92;;
2652;SDS011;1336;48.692;9.144;2022-10-16T06:35:15;6.33;;;3.20;;
2652;SDS011;1336;48.692;9.144;2022-10-16T06:36:07;3.92;;;2.58;;
2652;SDS011;1336;48.692;9.144;2022-10-16T06:36:59;3.03;;;2.40;;
2652;SDS011;1336;48.692;9.144;2022-10-16T06:37:52;5.50;;;2.40;;
2652;SDS011;1336;48.692;9.144;2022-10-16T06:38:43;8.52;;;2.70;;
2652;SDS011;1336;48.692;9.144;2022-10-16T06:39:35;3.17;;;2.30;;
2652;SDS011;1336;48.692;9.144;2022-10-16T06:40:26;5.50;;;2.40;;
2652;SDS011;1336;48.692;9.144;2022-10-16T06:41:18;5.93;;;2.28;;
2652;SDS011;1336;48.692;9.144;2022-10-16T06:42:10;6.07;;;2.10;;
2652;SDS011;1336;48.692;9.144;2022-10-16T06:43:01;5.53;;;2.30;;
2652;SDS011;1336;48.692;9.144;2022-10-16T06:43:52;4.90;;;2.10;;
2652;SDS011;1336;48.692;9.144;2022-10-16T06:44:44;11.15;;;3.63;;
2652;SDS011;1336;48.692;9.144;2022-10-16T06:45:35;2.23;;;1.97;;
2652;SDS011;1336;48.692;9.144;2022-10-16T06:46:27;2.53;;;1.90;;
2652;SDS011;1336;48.692;9.144;2022-10-16T06:47:17;8.35;;;2.30;;
2652;SDS011;1336;48.692;9.144;2022-10-16T06:48:09;5.25;;;1.77;;
2652;SDS011;1336;48.692;9.144;2022-10-16T06:49:01;5.70;;;2.17;;
2652;SDS011;1336;48.692;9.144;2022-10-16T06:49:53;7.18;;;2.05;;
2652;SDS011;1336;48.692;9.144;2022-10-16T06:50:44;7.73;;;2.07;;
2652;SDS011;1336;48.692;9.144;2022-10-16T06:51:35;9.05;;;2.47;;
2652;SDS011;1336;48.692;9.144;2022-10-16T06:52:30;5.55;;;1.95;;
2652;SDS011;1336;48.692;9.144;2022-10-16T06:53:21;9.13;;;3.00;;
2652;SDS011;1336;48.692;9.144;2022-10-16T06:54:14;3.90;;;2.10;;
2652;SDS011;1336;48.692;9.144;2022-10-16T06:55:06;4.75;;;1.95;;
2652;SDS011;1336;48.692;9.144;2022-10-16T06:55:58;3.13;;;2.35;;
2652;SDS011;1336;48.692;9.144;2022-10-16T06:56:57;3.50;;;2.50;;
2652;SDS011;1336;48.692;9.144;2022-10-16T06:57:50;5.13;;;3.03;;
2652;SDS011;1336;48.692;9.144;2022-10-16T06:58:41;3.23;;;2.40;;
2652;SDS011;1336;48.692;9.144;2022-10-16T06:59:33;5.28;;;3.90;;
2652;SDS011;1336;48.692;9.144;2022-10-16T07:00:23;7.47;;;2.97;;
2652;SDS011;1336;48.692;9.144;2022-10-16T07:01:16;2.53;;;2.28;;
2652;SDS011;1336;48.692;9.144;2022-10-16T07:02:08;6.00;;;2.50;;
2652;SDS011;1336;48.692;9.144;2022-10-16T07:02:59;5.72;;;2.60;;
2652;SDS011;1336;48.692;9.144;2022-10-16T07:03:50;2.80;;;2.20;;
2652;SDS011;1336;48.692;9.144;2022-10-16T07:04:43;3.53;;;1.70;;
2652;SDS011;1336;48.692;9.144;2022-10-16T07:05:36;3.28;;;1.90;;
2652;SDS011;1336;48.692;9.144;2022-10-16T07:06:31;4.93;;;2.05;;
2652;SDS011;1336;48.692;9.144;2022-10-16T07:07:23;4.30;;;2.00;;
2652;SDS011;1336;48.692;9.144;2022-10-16T07:08:16;3.90;;;1.80;;
2652;SDS011;1336;48.692;9.144;2022-10-16T07:09:08;2.23;;;2.03;;
2652;SDS011;1336;48.692;9.144;2022-10-16T07:10:01;3.13;;;2.55;;
2652;SDS011;1336;48.692;9.144;2022-10-16T07:10:57;2.83;;;2.47;;
2652;SDS011;1336;48.692;9.144;2022-10-16T07:11:50;5.30;;;3.00;;
2652;SDS011;1336;48.692;9.144;2022-10-16T07:12:41;8.83;;;3.17;;
2652;SDS011;1336;48.692;9.144;2022-10-16T07:13:35;3.60;;;2.80;;
2652;SDS011;1336;48.692;9.144;2022-10-16T07:14:26;3.20;;;2.75;;
2652;SDS011;1336;48.692;9.144;2022-10-16T07:15:21;2.65;;;2.00;;
2652;SDS011;1336;48.692;9.144;2022-10-16T07:16:13;2.60;;;2.27;;
2652;SDS011;1336;48.692;9.144;2022-10-16T07:17:06;5.43;;;2.22;;
2652;SDS011;1336;48.692;9.144;2022-10-16T07:17:57;5.97;;;3.10;;
2652;SDS011;1336;48.692;9.144;2022-10-16T07:18:49;5.13;;;2.00;;
2652;SDS011;1336;48.692;9.144;2022-10-16T07:19:41;2.60;;;2.17;;
2652;SDS011;1336;48.692;9.144;2022-10-16T07:20:34;2.65;;;2.05;;
2652;SDS011;1336;48.692;9.144;2022-10-16T07:21:25;3.53;;;2.20;;
2652;SDS011;1336;48.692;9.144;2022-10-16T07:22:18;6.60;;;2.42;;
2652;SDS011;1336;48.692;9.144;2022-10-16T07:23:09;3.00;;;2.38;;
2652;SDS011;1336;48.692;9.144;2022-10-16T07:24:01;2.78;;;2.30;;
2652;SDS011;1336;48.692;9.144;2022-10-16T07:24:54;3.80;;;1.90;;
2652;SDS011;1336;48.692;9.144;2022-10-16T07:25:45;3.38;;;2.40;;
2652;SDS011;1336;48.692;9.144;2022-10-16T07:26:43;9.65;;;2.38;;
2652;SDS011;1336;48.692;9.144;2022-10-16T07:27:36;6.32;;;2.28;;
2652;SDS011;1336;48.692;9.144;2022-10-16T07:28:27;5.17;;;2.20;;
2652;SDS011;1336;48.692;9.144;2022-10-16T07:29:20;5.65;;;2.00;;
2652;SDS011;1336;48.692;9.144;2022-10-16T07:30:11;6.53;;;2.38;;
2652;SDS011;1336;48.692;9.144;2022-10-16T07:31:03;4.40;;;2.00;;
2652;SDS011;1336;48.692;9.144;2022-10-16T07:31:56;2.40;;;1.92;;
2652;SDS011;1336;48.692;9.144;2022-10-16T07:32:48;2.45;;;1.98;;
2652;SDS011;1336;48.692;9.144;2022-10-16T07:33:39;3.63;;;2.40;;
2652;SDS011;1336;48.692;9.144;2022-10-16T07:34:33;4.40;;;2.15;;
2652;SDS011;1336;48.692;9.144;2022-10-16T07:35:23;3.20;;;1.93;;
2652;SDS011;1336;48.692;9.144;2022-10-16T07:36:17;4.30;;;1.80;;
2652;SDS011;1336;48.692;9.144;2022-10-16T07:37:09;2.63;;;2.08;;
2652;SDS011;1336;48.692;9.144;2022-10-16T07:38:00;9.90;;;2.10;;
2652;SDS011;1336;48.692;9.144;2022-10-16T07:38:51;5.07;;;2.03;;
2652;SDS011;1336;48.692;9.144;2022-10-16T07:39:43;4.32;;;2.03;;
2652;SDS011;1336;48.692;9.144;2022-10-16T07:40:33;3.37;;;1.83;;
2652;SDS011;1336;48.692;9.144;2022-10-16T07:41:25;6.20;;;2.20;;
2652;SDS011;1336;48.692;9.144;2022-10-16T07:42:17;1.90;;;1.75;;
2652;SDS011;1336;48.692;9.144;2022-10-16T07:43:10;2.95;;;2.10;;
2652;SDS011;1336;48.692;9.144;2022-10-16T07:44:01;4.13;;;2.50;;
2652;SDS011;1336;48.692;9.144;2022-10-16T07:44:52;4.35;;;1.70;;
2652;SDS011;1336;48.692;9.144;2022-10-16T07:45:46;5.50;;;2.17;;
2652;SDS011;1336;48.692;9.144;2022-10-16T07:46:39;3.03;;;2.00;;
2652;SDS011;1336;48.692;9.144;2022-10-16T07:47:30;3.53;;;1.90;;
2652;SDS011;1336;48.692;9.144;2022-10-16T07:48:22;4.65;;;2.20;;
2652;SDS011;1336;48.692;9.144;2022-10-16T07:49:14;2.40;;;1.65;;
2652;SDS011;1336;48.692;9.144;2022-10-16T07:50:06;8.25;;;2.13;;
2652;SDS011;1336;48.692;9.144;2022-10-16T07:50:57;3.20;;;1.70;;
2652;SDS011;1336;48.692;9.144;2022-10-16T07:51:50;1.75;;;1.65;;
2652;SDS011;1336;48.692;9.144;2022-10-16T07:52:42;2.20;;;2.00;;
2652;SDS011;1336;48.692;9.144;2022-10-16T07:53:33;4.73;;;1.80;;
2652;SDS011;1336;48.692;9.144;2022-10-16T07:54:25;2.80;;;1.88;;
2652;SDS011;1336;48.692;9.144;2022-10-16T07:55:15;3.50;;;2.07;;
2652;SDS011;1336;48.692;9.144;2022-10-16T07:56:07;3.25;;;2.95;;
2652;SDS011;1336;48.692;9.144;2022-10-16T07:56:58;3.60;;;2.40;;
2652;SDS011;1336;48.692;9.144;2022-10-16T07:57:50;3.10;;;1.90;;
2652;SDS011;1336;48.692;9.144;2022-10-16T07:58:40;2.90;;;2.30;;
2652;SDS011;1336;48.692;9.144;2022-10-16T07:59:32;2.90;;;2.38;;
2652;SDS011;1336;48.692;9.144;2022-10-16T08:00:23;4.47;;;2.30;;
2652;SDS011;1336;48.692;9.144;2022-10-16T08:01:15;3.72;;;2.10;;
2652;SDS011;1336;48.692;9.144;2022-10-16T08:02:07;2.75;;;2.00;;
2652;SDS011;1336;48.692;9.144;2022-10-16T08:02:58;3.72;;;2.45;;
2652;SDS011;1336;48.692;9.144;2022-10-16T08:03:50;1.95;;;1.83;;
2652;SDS011;1336;48.692;9.144;2022-10-16T08:04:46;2.50;;;1.95;;
2652;SDS011;1336;48.692;9.144;2022-10-16T08:05:37;3.08;;;1.80;;
2652;SDS011;1336;48.692;9.144;2022-10-16T08:06:28;6.88;;;2.00;;
2652;SDS011;1336;48.692;9.144;2022-10-16T08:07:26;1.67;;;1.58;;
2652;SDS011;1336;48.692;9.144;2022-10-16T08:08:18;12.88;;;2.15;;
2652;SDS011;1336;48.692;9.144;2022-10-16T08:09:09;8.35;;;1.95;;
2652;SDS011;1336;48.692;9.144;2022-10-16T08:10:01;7.85;;;2.00;;
2652;SDS011;1336;48.692;9.144;2022-10-16T08:10:52;5.05;;;2.10;;
2652;SDS011;1336;48.692;9.144;2022-10-16T08:11:44;3.35;;;2.13;;
2652;SDS011;1336;48.692;9.144;2022-10-16T08:12:35;2.50;;;1.80;;
2652;SDS011;1336;48.692;9.144;2022-10-16T08:13:27;4.53;;;2.05;;
2652;SDS011;1336;48.692;9.144;2022-10-16T08:14:18;3.10;;;1.90;;
2652;SDS011;1336;48.692;9.144;2022-10-16T08:15:10;3.63;;;1.90;;
2652;SDS011;1336;48.692;9.144;2022-10-16T08:16:00;4.60;;;2.37;;
2652;SDS011;1336;48.692;9.144;2022-10-16T08:16:53;3.25;;;1.55;;
2652;SDS011;1336;48.692;9.144;2022-10-16T08:17:44;5.37;;;2.10;;
2652;SDS011;1336;48.692;9.144;2022-10-16T08:18:44;4.50;;;1.92;;
2652;SDS011;1336;48.692;9.144;2022-10-16T08:19:36;2.65;;;1.42;;
2652;SDS011;1336;48.692;9.144;2022-10-16T08:20:28;2.78;;;1.70;;
2652;SDS011;1336;48.692;9.144;2022-10-16T08:21:21;6.78;;;1.85;;
2652;SDS011;1336;48.692;9.144;2022-10-16T08:22:13;4.60;;;1.75;;
2652;SDS011;1336;48.692;9.144;2022-10-16T08:23:06;5.55;;;2.20;;
2652;SDS011;1336;48.692;9.144;2022-10-16T08:23:57;4.20;;;1.77;;
2652;SDS011;1336;48.692;9.144;2022-10-16T08:24:50;2.33;;;1.50;;
2652;SDS011;1336;48.692;9.144;2022-10-16T08:25:41;4.00;;;1.87;;
2652;SDS011;1336;48.692;9.144;2022-10-16T08:26:33;2.42;;;2.05;;
2652;SDS011;1336;48.692;9.144;2022-10-16T08:27:23;3.30;;;1.80;;
2652;SDS011;1336;48.692;9.144;2022-10-16T08:28:15;2.00;;;1.80;;
2652;SDS011;1336;48.692;9.144;2022-10-16T08:29:06;3.80;;;2.00;;
2652;SDS011;1336;48.692;9.144;2022-10-16T08:29:58;2.97;;;2.40;;
2652;SDS011;1336;48.692;9.144;2022-10-16T08:30:49;3.20;;;2.00;;
2652;SDS011;1336;48.692;9.144;2022-10-16T08:31:41;4.00;;;1.90;;
2652;SDS011;1336;48.692;9.144;2022-10-16T08:32:31;2.43;;;1.47;;
2652;SDS011;1336;48.692;9.144;2022-10-16T08:33:23;1.73;;;1.63;;
2652;SDS011;1336;48.692;9.144;2022-10-16T08:34:14;1.70;;;1.60;;
2652;SDS011;1336;48.692;9.144;2022-10-16T08:35:06;2.25;;;1.58;;
2652;SDS011;1336;48.692;9.144;2022-10-16T08:35:57;3.88;;;1.75;;
2652;SDS011;1336;48.692;9.144;2022-10-16T08:36:49;1.95;;;1.70;;
2652;SDS011;1336;48.692;9.144;2022-10-16T08:37:40;1.80;;;1.40;;
2652;SDS011;1336;48.692;9.144;2022-10-16T08:38:33;2.30;;;2.10;;
2652;SDS011;1336;48.692;9.144;2022-10-16T08:39:24;2.65;;;1.60;;
2652;SDS011;1336;48.692;9.144;2022-10-16T08:40:17;1.90;;;1.80;;
2652;SDS011;1336;48.692;9.144;2022-10-16T08:41:19;4.15;;;1.65;;
2652;SDS011;1336;48.692;9.144;2022-10-16T08:42:29;4.60;;;1.55;;
2652;SDS011;1336;48.692;9.144;2022-10-16T08:43:31;1.80;;;1.70;;
2652;SDS011;1336;48.692;9.144;2022-10-16T08:44:46;1.50;;;1.40;;
2652;SDS011;1336;48.692;9.144;2022-10-16T08:47:23;2.42;;;1.45;;
2652;SDS011;1336;48.692;9.144;2022-10-16T08:48:18;1.70;;;1.60;;
2652;SDS011;1336;48.692;9.144;2022-10-16T08:49:13;3.63;;;1.55;;
2652;SDS011;1336;48.692;9.144;2022-10-16T08:50:08;6.65;;;2.13;;
2652;SDS011;1336;48.692;9.144;2022-10-16T08:51:02;1.95;;;1.45;;
2652;SDS011;1336;48.692;9.144;2022-10-16T08:51:53;3.40;;;1.65;;
2652;SDS011;1336;48.692;9.144;2022-10-16T08:52:47;3.03;;;1.70;;
2652;SDS011;1336;48.692;9.144;2022-10-16T08:53:44;3.40;;;1.90;;
2652;SDS011;1336;48.692;9.144;2022-10-16T08:54:41;3.38;;;1.60;;
2652;SDS011;1336;48.692;9.144;2022-10-16T08:55:37;2.42;;;1.73;;
2652;SDS011;1336;48.692;9.144;2022-10-16T08:56:33;4.72;;;1.58;;
2652;SDS011;1336;48.692;9.144;2022-10-16T08:57:24;4.10;;;1.90;;
2652;SDS011;1336;48.692;9.144;2022-10-16T08:58:17;3.67;;;1.92;;
2652;SDS011;1336;48.692;9.144;2022-10-16T08:59:09;2.13;;;1.90;;
2652;SDS011;1336;48.692;9.144;2022-10-16T09:00:05;3.22;;;2.30;;
2652;SDS011;1336;48.692;9.144;2022-10-16T09:01:03;4.78;;;2.13;;
2652;SDS011;1336;48.692;9.144;2022-10-16T09:02:02;1.90;;;1.75;;
2652;SDS011;1336;48.692;9.144;2022-10-16T09:03:05;2.05;;;1.80;;
2652;SDS011;1336;48.692;9.144;2022-10-16T09:04:16;3.17;;;1.60;;
2652;SDS011;1336;48.692;9.144;2022-10-16T09:05:31;3.05;;;2.10;;
2652;SDS011;1336;48.692;9.144;2022-10-16T09:06:37;1.92;;;1.50;;
2652;SDS011;1336;48.692;9.144;2022-10-16T09:07:38;4.20;;;1.90;;
2652;SDS011;1336;48.692;9.144;2022-10-16T09:08:40;3.45;;;1.70;;
2652;SDS011;1336;48.692;9.144;2022-10-16T09:09:45;3.25;;;1.80;;
2652;SDS011;1336;48.692;9.144;2022-10-16T09:10:47;2.75;;;1.85;;
2652;SDS011;1336;48.692;9.144;2022-10-16T09:11:48;2.75;;;1.67;;
2652;SDS011;1336;48.692;9.144;2022-10-16T09:12:44;3.45;;;2.05;;
2652;SDS011;1336;48.692;9.144;2022-10-16T09:13:44;2.80;;;1.60;;
2652;SDS011;1336;48.692;9.144;2022-10-16T09:14:43;1.95;;;1.70;;
2652;SDS011;1336;48.692;9.144;2022-10-16T09:15:45;7.95;;;1.95;;
2652;SDS011;1336;48.692;9.144;2022-10-16T09:16:43;3.47;;;1.95;;
2652;SDS011;1336;48.692;9.144;2022-10-16T09:17:41;6.75;;;1.80;;
2652;SDS011;1336;48.692;9.144;2022-10-16T09:18:43;3.13;;;1.60;;
2652;SDS011;1336;48.692;9.144;2022-10-16T09:19:39;2.95;;;1.80;;
2652;SDS011;1336;48.692;9.144;2022-10-16T09:20:39;4.13;;;1.80;;
2652;SDS011;1336;48.692;9.144;2022-10-16T09:21:39;1.70;;;1.60;;
2652;SDS011;1336;48.692;9.144;2022-10-16T09:22:33;3.65;;;1.63;;
2652;SDS011;1336;48.692;9.144;2022-10-16T09:23:25;2.60;;;1.73;;
2652;SDS011;1336;48.692;9.144;2022-10-16T09:24:20;4.28;;;1.60;;
2652;SDS011;1336;48.692;9.144;2022-10-16T09:25:14;4.78;;;2.20;;
2652;SDS011;1336;48.692;9.144;2022-10-16T09:26:09;2.10;;;1.58;;
2652;SDS011;1336;48.692;9.144;2022-10-16T09:27:01;1.50;;;1.40;;
2652;SDS011;1336;48.692;9.144;2022-10-16T09:27:53;7.40;;;1.48;;
2652;SDS011;1336;48.692;9.144;2022-10-16T09:28:44;8.10;;;1.60;;
2652;SDS011;1336;48.692;9.144;2022-10-16T09:29:36;1.85;;;1.65;;
2652;SDS011;1336;48.692;9.144;2022-10-16T09:30:27;4.60;;;1.93;;
2652;SDS011;1336;48.692;9.144;2022-10-16T09:31:20;3.63;;;1.60;;
2652;SDS011;1336;48.692;9.144;2022-10-16T09:32:13;2.00;;;1.40;;
2652;SDS011;1336;48.692;9.144;2022-10-16T09:33:09;1.95;;;1.83;;
2652;SDS011;1336;48.692;9.144;2022-10-16T09:34:02;4.10;;;1.50;;
2652;SDS011;1336;48.692;9.144;2022-10-16T09:34:56;4.13;;;1.45;;
2652;SDS011;1336;48.692;9.144;2022-10-16T09:35:48;2.58;;;1.85;;
2652;SDS011;1336;48.692;9.144;2022-10-16T09:36:43;4.05;;;1.70;;
2652;SDS011;1336;48.692;9.144;2022-10-16T09:37:36;4.13;;;1.60;;
2652;SDS011;1336;48.692;9.144;2022-10-16T09:38:28;1.85;;;1.60;;
2652;SDS011;1336;48.692;9.144;2022-10-16T09:39:21;3.70;;;1.40;;
2652;SDS011;1336;48.692;9.144;2022-10-16T09:40:23;3.38;;;1.60;;
2652;SDS011;1336;48.692;9.144;2022-10-16T09:41:19;5.30;;;1.50;;
2652;SDS011;1336;48.692;9.144;2022-10-16T09:42:14;2.55;;;1.50;;
2652;SDS011;1336;48.692;9.144;2022-10-16T09:43:12;3.15;;;2.20;;
2652;SDS011;1336;48.692;9.144;2022-10-16T09:44:17;2.30;;;1.20;;
2652;SDS011;1336;48.692;9.144;2022-10-16T09:45:19;1.58;;;1.40;;
2652;SDS011;1336;48.692;9.144;2022-10-16T09:46:21;3.80;;;1.40;;
2652;SDS011;1336;48.692;9.144;2022-10-16T09:47:16;1.52;;;1.30;;
2652;SDS011;1336;48.692;9.144;2022-10-16T09:48:10;1.63;;;1.15;;
2652;SDS011;1336;48.692;9.144;2022-10-16T09:49:04;2.20;;;1.40;;
2652;SDS011;1336;48.692;9.144;2022-10-16T09:49:56;2.55;;;1.10;;
2652;SDS011;1336;48.692;9.144;2022-10-16T09:50:58;2.75;;;1.88;;
2652;SDS011;1336;48.692;9.144;2022-10-16T09:51:50;1.40;;;1.17;;
2652;SDS011;1336;48.692;9.144;2022-10-16T09:53:03;2.65;;;1.45;;
2652;SDS011;1336;48.692;9.144;2022-10-16T09:53:58;1.58;;;1.35;;
2652;SDS011;1336;48.692;9.144;2022-10-16T09:54:53;4.25;;;1.30;;
2652;SDS011;1336;48.692;9.144;2022-10-16T09:55:48;2.63;;;1.30;;
2652;SDS011;1336;48.692;9.144;2022-10-16T09:56:40;2.13;;;1.10;;
2652;SDS011;1336;48.692;9.144;2022-10-16T09:57:31;2.45;;;1.15;;
2652;SDS011;1336;48.692;9.144;2022-10-16T09:58:25;1.35;;;1.25;;
2652;SDS011;1336;48.692;9.144;2022-10-16T09:59:16;1.93;;;1.43;;
2652;SDS011;1336;48.692;9.144;2022-10-16T10:00:09;1.70;;;1.17;;
2652;SDS011;1336;48.692;9.144;2022-10-16T10:01:01;3.70;;;1.30;;
2652;SDS011;1336;48.692;9.144;2022-10-16T10:01:53;3.38;;;1.50;;
2652;SDS011;1336;48.692;9.144;2022-10-16T10:02:45;2.15;;;1.15;;
2652;SDS011;1336;48.692;9.144;2022-10-16T10:03:38;1.33;;;1.23;;
2652;SDS011;1336;48.692;9.144;2022-10-16T10:04:37;2.15;;;1.30;;
2652;SDS011;1336;48.692;9.144;2022-10-16T10:05:32;1.40;;;1.30;;
2652;SDS011;1336;48.692;9.144;2022-10-16T10:06:23;1.50;;;1.17;;
2652;SDS011;1336;48.692;9.144;2022-10-16T10:07:18;2.42;;;1.75;;
2652;SDS011;1336;48.692;9.144;2022-10-16T10:08:12;4.30;;;1.42;;
2652;SDS011;1336;48.692;9.144;2022-10-16T10:09:15;1.92;;;1.15;;
2652;SDS011;1336;48.692;9.144;2022-10-16T10:10:19;2.15;;;1.20;;
2652;SDS011;1336;48.692;9.144;2022-10-16T10:11:13;1.92;;;1.55;;
2652;SDS011;1336;48.692;9.144;2022-10-16T10:12:04;3.20;;;1.40;;
2652;SDS011;1336;48.692;9.144;2022-10-16T10:12:57;1.23;;;1.13;;
2652;SDS011;1336;48.692;9.144;2022-10-16T10:13:48;4.20;;;1.33;;
2652;SDS011;1336;48.692;9.144;2022-10-16T10:14:40;2.22;;;1.42;;
2652;SDS011;1336;48.692;9.144;2022-10-16T10:15:41;3.47;;;2.00;;
2652;SDS011;1336;48.692;9.144;2022-10-16T10:16:33;4.63;;;2.20;;
2652;SDS011;1336;48.692;9.144;2022-10-16T10:17:24;3.92;;;1.85;;
2652;SDS011;1336;48.692;9.144;2022-10-16T10:18:17;5.88;;;2.00;;
2652;SDS011;1336;48.692;9.144;2022-10-16T10:19:12;1.90;;;1.80;;
2652;SDS011;1336;48.692;9.144;2022-10-16T10:20:14;2.28;;;1.67;;
2652;SDS011;1336;48.692;9.144;2022-10-16T10:21:13;4.78;;;1.50;;
2652;SDS011;1336;48.692;9.144;2022-10-16T10:22:13;3.35;;;1.52;;
2652;SDS011;1336;48.692;9.144;2022-10-16T10:23:18;1.75;;;1.60;;
2652;SDS011;1336;48.692;9.144;2022-10-16T10:24:12;4.60;;;2.15;;
2652;SDS011;1336;48.692;9.144;2022-10-16T10:25:12;5.03;;;1.40;;
2652;SDS011;1336;48.692;9.144;2022-10-16T10:26:23;2.88;;;1.55;;
2652;SDS011;1336;48.692;9.144;2022-10-16T10:27:17;5.10;;;1.65;;
2652;SDS011;1336;48.692;9.144;2022-10-16T10:28:16;4.00;;;1.23;;
2652;SDS011;1336;48.692;9.144;2022-10-16T10:29:16;1.30;;;1.20;;
2652;SDS011;1336;48.692;9.144;2022-10-16T10:30:18;2.00;;;1.10;;
2652;SDS011;1336;48.692;9.144;2022-10-16T10:31:13;1.70;;;1.25;;
2652;SDS011;1336;48.692;9.144;2022-10-16T10:32:17;1.70;;;1.27;;
2652;SDS011;1336;48.692;9.144;2022-10-16T10:33:19;1.88;;;1.60;;
2652;SDS011;1336;48.692;9.144;2022-10-16T10:34:20;3.03;;;1.25;;